Time;durP1;ratioP1;P1;durP2;ratioP2;P2;SDS_P1;SDS_P2;PMS_P1;PMS_P2;Temp;Humidity;BMP_temperature;BMP_pressure;BME280_temperature;BME280_humidity;BME280_pressure;Samples;Min_cycle;Max_cycle;Signal;HPM_P1;HPM_P2
2021/08/12 00:01:20;;;;;;;5.30;4.70;;;17.50;99.90;;;;;;5053837;28;20533;-64
2021/08/12 00:03:46;;;;;;;4.87;3.80;;;17.40;99.90;;;;;;5053656;28;20167;-62
2021/08/12 00:06:12;;;;;;;4.30;3.90;;;17.40;99.90;;;;;;5053541;28;20408;-63
2021/08/12 00:08:38;;;;;;;5.13;4.57;;;17.40;99.90;;;;;;5053276;28;20513;-62
2021/08/12 00:11:04;;;;;;;7.00;3.63;;;17.40;99.90;;;;;;5053729;28;20807;-62
2021/08/12 00:13:30;;;;;;;3.47;3.17;;;17.40;99.90;;;;;;5053465;28;20555;-62
2021/08/12 00:15:56;;;;;;;4.67;4.27;;;17.40;99.90;;;;;;5053645;28;20417;-63
2021/08/12 00:18:22;;;;;;;4.80;3.87;;;17.30;99.90;;;;;;5053036;28;20437;-62
2021/08/12 00:20:47;;;;;;;4.50;3.87;;;17.30;99.90;;;;;;5053472;28;20173;-62
2021/08/12 00:23:13;;;;;;;4.40;4.00;;;17.30;99.90;;;;;;5053083;28;20170;-63
2021/08/12 00:25:39;;;;;;;5.03;3.87;;;17.20;99.90;;;;;;5053455;28;20576;-63
2021/08/12 00:28:04;;;;;;;4.53;4.00;;;17.20;99.90;;;;;;5052920;28;20565;-61
2021/08/12 00:30:30;;;;;;;4.03;3.73;;;17.20;99.90;;;;;;5053412;28;20169;-63
2021/08/12 00:32:56;;;;;;;3.90;3.60;;;17.10;99.90;;;;;;5053024;28;20197;-63
2021/08/12 00:35:22;;;;;;;5.50;3.63;;;17.10;99.90;;;;;;5053363;28;20221;-61
2021/08/12 00:37:48;;;;;;;4.93;4.53;;;17.00;99.90;;;;;;5052919;28;20809;-63
2021/08/12 00:40:19;;;;;;;4.37;3.97;;;17.00;99.90;;;;;;5053349;28;20173;-61
2021/08/12 00:42:44;;;;;;;4.40;4.10;;;17.00;99.90;;;;;;5053252;28;20185;-62
2021/08/12 00:45:10;;;;;;;4.13;3.83;;;16.90;99.90;;;;;;5053024;28;20405;-62
2021/08/12 00:47:36;;;;;;;6.80;4.50;;;17.00;99.90;;;;;;5052793;28;20174;-61
2021/08/12 00:50:01;;;;;;;7.17;6.47;;;16.90;99.90;;;;;;5053038;28;20220;-64
2021/08/12 00:52:27;;;;;;;5.30;4.80;;;16.90;99.90;;;;;;5053340;28;20196;-61
2021/08/12 00:54:54;;;;;;;4.50;4.10;;;16.90;99.90;;;;;;5053112;28;20723;-63
2021/08/12 00:57:20;;;;;;;4.53;4.13;;;16.90;99.90;;;;;;5052794;28;20316;-62
2021/08/12 00:59:46;;;;;;;4.80;4.10;;;16.80;99.90;;;;;;5053009;28;20447;-63
2021/08/12 01:02:13;;;;;;;5.17;4.67;;;16.80;99.90;;;;;;5052968;28;20906;-62
2021/08/12 01:04:51;;;;;;;4.07;3.70;;;16.80;99.90;;;;;;5052928;28;20205;-63
2021/08/12 01:07:26;;;;;;;4.40;4.00;;;16.80;99.90;;;;;;5051536;28;20420;-62
2021/08/12 01:10:09;;;;;;;3.83;3.47;;;16.80;99.90;;;;;;5053005;28;20463;-63
2021/08/12 01:13:01;;;;;;;4.30;4.00;;;16.70;99.90;;;;;;5052651;28;20954;-63
2021/08/12 01:15:37;;;;;;;4.33;3.93;;;16.70;99.90;;;;;;5052907;28;20401;-61
2021/08/12 01:18:24;;;;;;;6.90;4.30;;;16.70;99.90;;;;;;5052526;28;20406;-64
2021/08/12 01:20:59;;;;;;;4.07;3.07;;;16.70;99.90;;;;;;5052960;28;20848;-64
2021/08/12 01:23:25;;;;;;;9.77;4.00;;;16.60;99.90;;;;;;5052744;28;20411;-64
2021/08/12 01:25:54;;;;;;;5.37;4.80;;;16.60;99.90;;;;;;5052973;28;20404;-62
2021/08/12 01:28:25;;;;;;;5.20;4.70;;;16.60;99.90;;;;;;5052491;28;20427;-62
2021/08/12 01:31:13;;;;;;;3.90;3.60;;;16.60;99.90;;;;;;5051577;28;20470;-62
2021/08/12 01:33:45;;;;;;;5.47;3.93;;;16.60;99.90;;;;;;5052616;28;20456;-61
2021/08/12 01:36:12;;;;;;;11.30;4.30;;;16.60;99.90;;;;;;5054939;28;20394;-63
2021/08/12 01:38:39;;;;;;;3.70;3.40;;;16.50;99.90;;;;;;5056229;28;20424;-62
2021/08/12 01:41:06;;;;;;;3.40;3.10;;;16.50;99.90;;;;;;5056475;28;20400;-63
2021/08/12 01:43:31;;;;;;;4.30;3.90;;;16.50;99.90;;;;;;5056364;28;20419;-63
2021/08/12 01:45:59;;;;;;;3.87;3.57;;;16.50;99.90;;;;;;5055078;28;20766;-63
2021/08/12 01:48:26;;;;;;;3.73;3.43;;;16.50;99.90;;;;;;5056036;28;20206;-62
2021/08/12 01:50:53;;;;;;;4.63;4.03;;;16.40;99.90;;;;;;5056124;28;20415;-61
2021/08/12 01:53:21;;;;;;;4.20;3.80;;;16.40;99.90;;;;;;5056085;28;20561;-63
2021/08/12 01:55:48;;;;;;;7.47;3.70;;;16.40;99.90;;;;;;5056267;28;20403;-63
2021/08/12 01:58:20;;;;;;;4.17;3.73;;;16.40;99.90;;;;;;5055542;28;20431;-63
2021/08/12 02:00:47;;;;;;;4.50;4.20;;;16.40;99.90;;;;;;5056102;28;20797;-61
2021/08/12 02:03:18;;;;;;;4.50;4.10;;;16.40;99.90;;;;;;5055915;28;20431;-62
2021/08/12 02:05:47;;;;;;;4.00;3.60;;;16.40;99.90;;;;;;5055955;28;20456;-63
2021/08/12 02:08:13;;;;;;;4.80;4.03;;;16.40;99.90;;;;;;5055428;28;20463;-62
2021/08/12 02:10:41;;;;;;;7.40;4.60;;;16.40;99.90;;;;;;5055848;28;20396;-62
2021/08/12 02:13:11;;;;;;;5.53;4.83;;;16.40;99.90;;;;;;5055798;28;20463;-63
2021/08/12 02:15:37;;;;;;;5.20;3.93;;;16.50;99.90;;;;;;5055755;28;20439;-61
2021/08/12 02:18:04;;;;;;;4.40;3.97;;;16.50;99.90;;;;;;5055308;28;20429;-63
2021/08/12 02:20:30;;;;;;;4.87;4.37;;;16.50;99.90;;;;;;5055618;28;20812;-61
2021/08/12 02:23:05;;;;;;;4.53;4.10;;;16.60;99.90;;;;;;5055639;28;20415;-63
2021/08/12 02:25:36;;;;;;;4.17;3.77;;;16.60;99.90;;;;;;5055674;28;20218;-62
2021/08/12 02:28:08;;;;;;;3.97;3.67;;;16.70;99.90;;;;;;5055223;28;20423;-63
2021/08/12 02:30:39;;;;;;;4.30;4.00;;;16.70;99.90;;;;;;5055502;28;20854;-61
2021/08/12 02:33:08;;;;;;;4.13;3.77;;;16.70;99.90;;;;;;5055357;28;20463;-62
2021/08/12 02:35:37;;;;;;;5.60;4.10;;;16.70;99.90;;;;;;5054101;28;20414;-63
2021/08/12 02:38:03;;;;;;;4.43;3.97;;;16.70;99.90;;;;;;5054842;28;20428;-61
2021/08/12 02:40:30;;;;;;;4.30;3.97;;;16.80;99.90;;;;;;5055122;28;20416;-62
2021/08/12 02:42:56;;;;;;;5.20;4.70;;;16.80;99.90;;;;;;5055222;28;20407;-61
2021/08/12 02:45:25;;;;;;;4.23;3.87;;;16.80;99.90;;;;;;5055190;28;20438;-62
2021/08/12 02:47:53;;;;;;;3.87;3.67;;;16.70;99.90;;;;;;5054566;28;20503;-61
2021/08/12 02:50:20;;;;;;;4.23;3.93;;;16.70;99.90;;;;;;5055060;28;20411;-61
2021/08/12 02:52:47;;;;;;;4.90;4.47;;;16.70;99.90;;;;;;5055055;28;20469;-63
2021/08/12 02:55:14;;;;;;;4.97;4.40;;;16.70;99.90;;;;;;5055124;28;20793;-62
2021/08/12 02:57:40;;;;;;;5.43;4.97;;;16.70;99.90;;;;;;5054523;28;20443;-63
2021/08/12 03:00:07;;;;;;;6.50;4.30;;;16.70;99.90;;;;;;5055152;28;20428;-63
2021/08/12 03:02:34;;;;;;;4.10;3.77;;;16.70;99.90;;;;;;5054881;28;20177;-62
2021/08/12 03:05:00;;;;;;;3.83;3.53;;;16.70;99.90;;;;;;5054700;28;20430;-62
2021/08/12 03:07:27;;;;;;;4.70;3.93;;;16.70;99.90;;;;;;5054426;28;20503;-62
2021/08/12 03:09:54;;;;;;;5.73;3.80;;;16.60;99.90;;;;;;5054562;28;20420;-63
2021/08/12 03:12:21;;;;;;;8.37;4.83;;;16.70;99.90;;;;;;5054580;28;20454;-61
2021/08/12 03:14:49;;;;;;;5.10;3.87;;;16.60;99.90;;;;;;5054670;28;20403;-63
2021/08/12 03:17:16;;;;;;;5.13;4.33;;;16.60;99.90;;;;;;5054209;28;20416;-62
2021/08/12 03:19:43;;;;;;;6.47;4.30;;;16.50;99.90;;;;;;5054342;28;20569;-63
2021/08/12 03:22:11;;;;;;;4.20;3.73;;;16.50;99.90;;;;;;5054505;28;20466;-62
2021/08/12 03:24:46;;;;;;;4.27;3.97;;;16.40;99.90;;;;;;5054494;28;20482;-61
2021/08/12 03:27:13;;;;;;;5.30;3.30;;;16.40;99.90;;;;;;5054175;28;20425;-61
2021/08/12 03:29:40;;;;;;;5.37;3.93;;;16.40;99.90;;;;;;5054207;28;20448;-61
2021/08/12 03:32:06;;;;;;;3.70;3.40;;;16.30;99.90;;;;;;5053865;28;20420;-61
2021/08/12 03:34:32;;;;;;;6.50;4.30;;;16.30;99.90;;;;;;5054238;28;20450;-63
2021/08/12 03:36:58;;;;;;;4.50;3.97;;;16.30;99.90;;;;;;5053844;28;20404;-61
2021/08/12 03:39:23;;;;;;;4.70;4.27;;;16.20;99.90;;;;;;5054017;28;20426;-63
2021/08/12 03:41:50;;;;;;;5.40;4.23;;;16.20;99.90;;;;;;5054139;28;20262;-61
2021/08/12 03:44:17;;;;;;;4.83;4.33;;;16.20;99.90;;;;;;5054128;28;20173;-63
2021/08/12 03:46:42;;;;;;;4.97;3.87;;;16.20;99.90;;;;;;5052509;28;20449;-63
2021/08/12 03:49:08;;;;;;;4.27;3.87;;;16.10;99.90;;;;;;5053603;28;20945;-62
2021/08/12 03:51:33;;;;;;;3.93;3.57;;;16.20;99.90;;;;;;5053824;28;20666;-64
2021/08/12 03:53:59;;;;;;;5.30;4.20;;;16.10;99.90;;;;;;5053787;28;20254;-62
2021/08/12 03:56:25;;;;;;;4.40;4.00;;;16.10;99.90;;;;;;5053902;28;20173;-63
2021/08/12 03:58:51;;;;;;;3.70;3.40;;;16.10;99.90;;;;;;5052966;28;20193;-62
2021/08/12 04:01:17;;;;;;;4.73;4.33;;;16.10;99.90;;;;;;5053806;28;20494;-63
2021/08/12 04:03:42;;;;;;;3.80;3.27;;;16.10;99.90;;;;;;5053767;28;20409;-62
2021/08/12 04:06:08;;;;;;;6.60;4.30;;;16.00;99.90;;;;;;5053398;28;20663;-63
2021/08/12 04:08:35;;;;;;;3.90;3.50;;;16.00;99.90;;;;;;5053647;28;20198;-63
2021/08/12 04:11:01;;;;;;;4.03;3.63;;;16.00;99.90;;;;;;5053587;28;20169;-63
2021/08/12 04:13:26;;;;;;;4.13;3.83;;;16.00;99.90;;;;;;5053522;28;20438;-62
2021/08/12 04:15:53;;;;;;;4.30;3.87;;;16.00;99.90;;;;;;5053529;28;20412;-61
2021/08/12 04:18:19;;;;;;;5.20;4.27;;;16.00;99.90;;;;;;5053143;28;20275;-64
2021/08/12 04:20:44;;;;;;;5.07;4.60;;;16.00;99.90;;;;;;5053318;28;20465;-64
2021/08/12 04:23:10;;;;;;;4.73;3.93;;;16.10;99.90;;;;;;5053554;28;20184;-63
2021/08/12 04:25:36;;;;;;;4.70;4.30;;;16.10;99.90;;;;;;5053221;28;20183;-63
2021/08/12 04:28:02;;;;;;;5.13;4.20;;;16.10;99.90;;;;;;5053012;28;20660;-63
2021/08/12 04:30:28;;;;;;;7.67;5.03;;;16.10;99.90;;;;;;5053206;28;20540;-62
2021/08/12 04:32:54;;;;;;;4.30;4.00;;;16.20;99.90;;;;;;5052872;28;20466;-63
2021/08/12 04:35:20;;;;;;;7.40;4.70;;;16.20;99.90;;;;;;5053226;28;20400;-60
2021/08/12 04:37:46;;;;;;;6.33;4.63;;;16.30;99.90;;;;;;5052873;28;20169;-62
2021/08/12 04:40:14;;;;;;;4.40;4.00;;;16.30;99.90;;;;;;5053045;28;20277;-62
2021/08/12 04:42:41;;;;;;;5.30;3.83;;;16.40;99.90;;;;;;5053258;28;20760;-63
2021/08/12 04:45:07;;;;;;;6.13;5.37;;;16.40;99.90;;;;;;5053018;28;20430;-63
2021/08/12 04:47:33;;;;;;;4.73;4.00;;;16.50;99.90;;;;;;5052729;28;20408;-62
2021/08/12 04:49:59;;;;;;;4.97;4.47;;;16.70;99.90;;;;;;5053062;28;20878;-62
2021/08/12 04:52:25;;;;;;;5.90;4.53;;;16.80;99.90;;;;;;5052983;28;20480;-61
2021/08/12 04:54:50;;;;;;;4.33;3.93;;;17.00;99.90;;;;;;5053111;28;20204;-63
2021/08/12 04:57:16;;;;;;;6.20;4.83;;;17.10;99.90;;;;;;5052780;28;20771;-61
2021/08/12 04:59:42;;;;;;;5.00;4.50;;;17.20;99.90;;;;;;5052788;28;20206;-61
2021/08/12 05:02:07;;;;;;;4.90;4.43;;;17.30;99.90;;;;;;5052883;28;20176;-61
2021/08/12 05:04:33;;;;;;;5.03;4.50;;;17.50;99.90;;;;;;5053089;28;20179;-62
2021/08/12 05:06:59;;;;;;;5.23;4.30;;;17.80;99.90;;;;;;5052592;28;20181;-62
2021/08/12 05:09:24;;;;;;;4.63;4.23;;;18.10;99.90;;;;;;5053807;28;20189;-64
2021/08/12 05:11:50;;;;;;;4.70;3.00;;;18.50;99.90;;;;;;5056996;28;20175;-62
2021/08/12 05:14:15;;;;;;;5.70;4.60;;;18.70;99.90;;;;;;5056687;28;20210;-64
2021/08/12 05:16:41;;;;;;;4.20;3.90;;;18.90;99.90;;;;;;5056336;28;20636;-62
2021/08/12 05:19:07;;;;;;;6.03;4.23;;;19.00;99.90;;;;;;5056589;28;20212;-63
2021/08/12 05:21:32;;;;;;;3.87;3.50;;;19.00;99.90;;;;;;5056711;28;20211;-63
2021/08/12 05:23:58;;;;;;;4.80;4.30;;;19.00;99.90;;;;;;5056910;28;20540;-61
2021/08/12 05:26:23;;;;;;;7.17;5.07;;;18.90;99.90;;;;;;5056410;28;20177;-62
2021/08/12 05:28:49;;;;;;;6.00;3.43;;;18.90;99.90;;;;;;5056036;28;20198;-62
2021/08/12 05:31:15;;;;;;;4.43;4.10;;;18.80;99.90;;;;;;5056533;28;20186;-64
2021/08/12 05:33:41;;;;;;;4.53;4.13;;;18.90;99.90;;;;;;5056412;28;20197;-61
2021/08/12 05:36:07;;;;;;;5.00;3.97;;;18.80;99.90;;;;;;5056463;28;20740;-62
2021/08/12 05:38:33;;;;;;;5.20;4.10;;;18.80;99.90;;;;;;5056165;28;20430;-63
2021/08/12 05:40:59;;;;;;;10.03;4.40;;;18.70;99.90;;;;;;5056296;28;20513;-64
2021/08/12 05:43:26;;;;;;;4.90;3.80;;;18.60;99.90;;;;;;5056086;28;20465;-61
2021/08/12 05:45:52;;;;;;;6.43;4.27;;;18.60;99.90;;;;;;5056410;28;20246;-63
2021/08/12 05:48:19;;;;;;;6.63;5.13;;;18.50;99.90;;;;;;5055936;28;20494;-61
2021/08/12 05:50:46;;;;;;;6.63;3.80;;;18.70;99.90;;;;;;5056115;28;20411;-62
2021/08/12 05:53:12;;;;;;;5.60;4.10;;;18.80;99.90;;;;;;5056165;28;20480;-63
2021/08/12 05:55:38;;;;;;;4.00;3.17;;;19.00;99.90;;;;;;5056212;28;20413;-63
2021/08/12 05:58:04;;;;;;;4.07;3.67;;;19.40;99.90;;;;;;5055666;28;20984;-63
2021/08/12 06:00:30;;;;;;;6.50;5.10;;;19.60;99.90;;;;;;5055950;28;20412;-61
2021/08/12 06:02:55;;;;;;;8.03;4.57;;;19.70;99.90;;;;;;5056307;28;20218;-64
2021/08/12 06:05:21;;;;;;;5.53;3.33;;;19.80;99.90;;;;;;5056216;28;20739;-64
2021/08/12 06:07:47;;;;;;;5.33;4.83;;;20.00;99.90;;;;;;5055453;28;20228;-63
2021/08/12 06:10:14;;;;;;;3.80;3.33;;;20.00;99.90;;;;;;5055712;28;20185;-62
2021/08/12 06:12:40;;;;;;;6.00;4.07;;;20.10;99.90;;;;;;5055895;28;20544;-64
2021/08/12 06:15:06;;;;;;;6.43;3.70;;;20.30;99.90;;;;;;5055673;28;20411;-63
2021/08/12 06:17:36;;;;;;;4.13;3.73;;;20.40;99.90;;;;;;5055183;28;20559;-64
2021/08/12 06:20:01;;;;;;;3.90;3.50;;;20.60;99.90;;;;;;5055739;28;20791;-63
2021/08/12 06:22:27;;;;;;;4.67;4.27;;;20.50;99.90;;;;;;5055026;28;20392;-62
2021/08/12 06:24:52;;;;;;;3.90;3.57;;;20.40;99.90;;;;;;5054272;28;20273;-63
2021/08/12 06:27:18;;;;;;;3.43;3.13;;;20.40;99.90;;;;;;5055355;28;20178;-61
2021/08/12 06:29:44;;;;;;;4.13;3.73;;;20.30;99.90;;;;;;5055189;28;20197;-63
2021/08/12 06:32:10;;;;;;;4.37;3.87;;;20.40;99.90;;;;;;5054993;28;20181;-62
2021/08/12 06:34:36;;;;;;;4.77;4.33;;;20.40;99.90;;;;;;5055388;28;20215;-64
2021/08/12 06:37:02;;;;;;;4.17;3.60;;;20.30;99.90;;;;;;5054833;28;20424;-64
2021/08/12 06:39:27;;;;;;;4.60;3.83;;;20.40;99.90;;;;;;5054997;28;20456;-63
2021/08/12 06:41:53;;;;;;;4.00;3.70;;;20.70;99.90;;;;;;5055144;28;20211;-63
2021/08/12 06:44:18;;;;;;;4.20;3.80;;;20.80;99.90;;;;;;5055315;28;20624;-63
2021/08/12 06:46:44;;;;;;;4.40;3.87;;;20.90;99.90;;;;;;5054654;28;20256;-64
2021/08/12 06:49:10;;;;;;;4.20;3.80;;;20.90;99.90;;;;;;5054997;28;20193;-62
2021/08/12 06:51:36;;;;;;;5.80;3.80;;;20.90;99.90;;;;;;5055186;28;20554;-64
2021/08/12 06:54:01;;;;;;;5.67;5.07;;;20.90;99.90;;;;;;5055018;28;20264;-62
2021/08/12 06:56:27;;;;;;;4.13;3.73;;;21.00;99.90;;;;;;5055272;28;20408;-64
2021/08/12 06:58:52;;;;;;;5.27;4.20;;;21.20;99.90;;;;;;5054564;28;20178;-62
2021/08/12 07:01:18;;;;;;;4.90;3.93;;;21.40;99.90;;;;;;5054826;28;20617;-63
2021/08/12 07:03:44;;;;;;;6.07;4.60;;;21.50;99.90;;;;;;5054743;28;20170;-63
2021/08/12 07:06:09;;;;;;;4.00;3.70;;;21.70;99.90;;;;;;5054650;28;20227;-64
2021/08/12 07:08:35;;;;;;;4.40;4.00;;;21.90;99.90;;;;;;5052817;28;20707;-62
2021/08/12 07:11:00;;;;;;;4.20;3.30;;;22.10;99.90;;;;;;5054523;28;20208;-63
2021/08/12 07:13:26;;;;;;;6.13;4.30;;;22.30;99.90;;;;;;5053254;28;20201;-63
2021/08/12 07:15:52;;;;;;;3.53;3.03;;;22.50;99.90;;;;;;5054682;28;20220;-64
2021/08/12 07:18:17;;;;;;;4.73;3.67;;;22.70;99.90;;;;;;5054260;28;20188;-64
2021/08/12 07:20:43;;;;;;;3.90;3.50;;;22.90;99.90;;;;;;5054630;28;20575;-63
2021/08/12 07:23:09;;;;;;;3.73;3.43;;;23.10;99.90;;;;;;5054247;28;20173;-64
2021/08/12 07:25:34;;;;;;;4.70;3.50;;;23.40;99.90;;;;;;5054373;28;20625;-63
2021/08/12 07:28:00;;;;;;;4.10;3.50;;;23.60;99.90;;;;;;5053949;28;20667;-63
2021/08/12 07:30:26;;;;;;;5.23;3.37;;;24.00;99.90;;;;;;5054336;28;20631;-63
2021/08/12 07:32:51;;;;;;;4.53;3.40;;;24.40;99.90;;;;;;5051973;28;20209;-64
2021/08/12 07:35:18;;;;;;;4.13;3.50;;;24.70;99.90;;;;;;5054421;28;20192;-63
2021/08/12 07:37:44;;;;;;;4.13;3.43;;;25.20;99.90;;;;;;5053680;28;20172;-65
2021/08/12 07:40:10;;;;;;;4.50;3.23;;;26.00;99.90;;;;;;5053896;28;20910;-63
2021/08/12 07:42:36;;;;;;;4.10;3.67;;;27.00;99.90;;;;;;5054109;28;20527;-62
2021/08/12 07:45:03;;;;;;;3.70;3.40;;;28.20;99.50;;;;;;5054051;28;20371;-61
2021/08/12 07:47:32;;;;;;;3.60;3.30;;;29.50;96.80;;;;;;5053613;28;20165;-62
2021/08/12 07:49:58;;;;;;;3.43;3.17;;;30.60;95.70;;;;;;5054009;28;20779;-63
2021/08/12 07:52:23;;;;;;;4.50;4.20;;;31.90;92.70;;;;;;5053798;28;20410;-63
2021/08/12 07:54:50;;;;;;;4.40;3.87;;;32.80;90.30;;;;;;5053777;28;20409;-62
2021/08/12 07:57:16;;;;;;;4.83;3.63;;;33.40;88.50;;;;;;5053366;28;20265;-62
2021/08/12 07:59:42;;;;;;;4.13;3.83;;;34.10;85.80;;;;;;5053494;28;20472;-64
2021/08/12 08:02:08;;;;;;;4.27;3.97;;;34.60;83.30;;;;;;5052295;28;20181;-62
2021/08/12 08:04:33;;;;;;;4.50;4.13;;;34.80;80.90;;;;;;5053657;28;20173;-62
2021/08/12 08:07:02;;;;;;;3.97;3.70;;;34.80;79.10;;;;;;5053248;28;20541;-61
2021/08/12 08:09:27;;;;;;;4.00;3.70;;;35.00;79.90;;;;;;5053206;28;20545;-64
2021/08/12 08:11:53;;;;;;;3.90;3.60;;;35.60;77.20;;;;;;5052090;28;20412;-63
2021/08/12 08:14:19;;;;;;;6.33;4.50;;;36.20;75.60;;;;;;5053514;28;20203;-62
2021/08/12 08:16:44;;;;;;;3.90;3.63;;;37.00;72.90;;;;;;5053188;28;20169;-62
2021/08/12 08:19:10;;;;;;;4.70;4.30;;;37.30;71.60;;;;;;5053174;28;20548;-61
2021/08/12 08:21:39;;;;;;;5.27;4.87;;;37.50;70.90;;;;;;5053294;28;20178;-63
2021/08/12 08:24:06;;;;;;;4.47;4.13;;;37.80;68.30;;;;;;5051764;28;20252;-63
2021/08/12 08:26:32;;;;;;;4.57;4.27;;;37.70;67.70;;;;;;5052848;28;20493;-62
2021/08/12 08:28:57;;;;;;;4.13;3.83;;;37.50;66.60;;;;;;5053204;28;20481;-62
2021/08/12 08:31:23;;;;;;;4.87;4.47;;;37.30;67.30;;;;;;5053381;28;20636;-62
2021/08/12 08:33:48;;;;;;;4.77;4.33;;;37.60;67.20;;;;;;5053278;28;20197;-62
2021/08/12 08:36:14;;;;;;;4.60;4.20;;;38.10;65.60;;;;;;5053188;28;20209;-64
2021/08/12 08:38:39;;;;;;;4.37;4.13;;;38.40;63.70;;;;;;5052589;28;20185;-62
2021/08/12 08:41:07;;;;;;;4.90;4.50;;;38.50;63.00;;;;;;5053123;28;20173;-63
2021/08/12 08:43:34;;;;;;;3.80;3.60;;;38.30;61.90;;;;;;5053088;28;20243;-62
2021/08/12 08:46:02;;;;;;;5.40;4.90;;;38.10;63.40;;;;;;5052692;28;20412;-63
2021/08/12 08:48:32;;;;;;;4.90;4.50;;;38.10;62.80;;;;;;5052721;28;20424;-64
2021/08/12 08:50:58;;;;;;;3.50;3.30;;;38.20;63.40;;;;;;5053677;28;20980;-62
2021/08/12 08:53:24;;;;;;;4.30;4.00;;;38.40;62.10;;;;;;5052796;28;20530;-63
2021/08/12 08:55:51;;;;;;;4.57;4.27;;;38.70;61.40;;;;;;5053104;28;20416;-63
2021/08/12 08:58:18;;;;;;;4.50;4.20;;;38.80;61.20;;;;;;5052596;28;20952;-61
2021/08/12 09:00:44;;;;;;;4.20;3.90;;;38.60;60.70;;;;;;5053128;28;20408;-63
2021/08/12 09:03:10;;;;;;;4.70;4.30;;;38.50;61.30;;;;;;5052826;28;20458;-63
2021/08/12 09:05:36;;;;;;;4.30;4.00;;;38.60;60.20;;;;;;5052822;28;20192;-63
2021/08/12 09:08:02;;;;;;;3.90;3.60;;;38.60;60.10;;;;;;5052491;28;20185;-62
2021/08/12 09:10:28;;;;;;;3.90;3.70;;;38.80;59.90;;;;;;5052920;28;20894;-62
2021/08/12 09:12:53;;;;;;;5.10;4.70;;;38.70;59.20;;;;;;5052943;28;20400;-63
2021/08/12 09:15:23;;;;;;;3.77;3.57;;;39.00;59.70;;;;;;5052844;28;20427;-61
2021/08/12 09:17:51;;;;;;;4.50;4.10;;;39.10;59.30;;;;;;5052327;28;20204;-63
2021/08/12 09:20:22;;;;;;;8.40;4.30;;;39.20;58.90;;;;;;5052861;28;20503;-62
2021/08/12 09:23:04;;;;;;;3.77;3.50;;;39.40;59.00;;;;;;5052628;28;20961;-63
2021/08/12 09:25:40;;;;;;;4.53;4.17;;;39.60;58.50;;;;;;5052714;28;20768;-62
2021/08/12 09:28:22;;;;;;;4.83;4.50;;;39.90;58.00;;;;;;5052255;28;20430;-63
2021/08/12 09:33:28;;;;;;;4.23;3.93;;;39.60;57.30;;;;;;5052718;28;20926;-62
2021/08/12 09:35:54;;;;;;;4.40;4.00;;;39.40;57.70;;;;;;5052468;28;20482;-62
2021/08/12 09:38:21;;;;;;;7.63;6.70;;;39.10;57.70;;;;;;5052157;28;20428;-64
2021/08/12 09:40:56;;;;;;;4.30;4.00;;;39.20;58.30;;;;;;5052724;28;20404;-63
2021/08/12 09:43:23;;;;;;;5.47;4.30;;;39.40;58.10;;;;;;5052517;28;20477;-63
2021/08/12 09:45:49;;;;;;;4.07;3.73;;;39.50;57.10;;;;;;5052503;28;20486;-63
2021/08/12 09:48:19;;;;;;;9.03;8.23;;;39.50;56.70;;;;;;5052223;28;20861;-62
2021/08/12 09:50:59;;;;;;;16.33;12.00;;;39.30;56.70;;;;;;5052619;28;20205;-62
2021/08/12 09:53:25;;;;;;;4.57;3.47;;;39.10;56.90;;;;;;5052635;28;20408;-61
2021/08/12 09:55:52;;;;;;;4.77;4.37;;;38.60;57.40;;;;;;5052417;28;20423;-64
2021/08/12 09:58:19;;;;;;;4.10;3.80;;;38.30;58.70;;;;;;5055811;28;20276;-63
2021/08/12 10:00:47;;;;;;;3.57;3.30;;;38.00;57.70;;;;;;5056047;28;20408;-62
2021/08/12 10:03:30;;;;;;;4.60;4.20;;;37.90;58.30;;;;;;5055954;28;20456;-63
2021/08/12 10:05:58;;;;;;;4.33;4.00;;;38.10;58.70;;;;;;5056029;28;20932;-62
2021/08/12 10:08:28;;;;;;;4.87;4.47;;;38.20;58.70;;;;;;5055409;28;20419;-61
2021/08/12 10:10:54;;;;;;;4.40;4.10;;;38.20;59.40;;;;;;5055828;28;20891;-62
2021/08/12 10:13:20;;;;;;;5.00;4.10;;;38.00;59.00;;;;;;5055844;28;20419;-61
2021/08/12 10:15:49;;;;;;;6.40;5.90;;;37.90;59.50;;;;;;5055793;28;20491;-64
2021/08/12 10:18:18;;;;;;;4.30;4.00;;;37.80;59.20;;;;;;5055323;28;20239;-64
2021/08/12 10:20:44;;;;;;;5.30;4.70;;;37.60;58.90;;;;;;5055579;28;20435;-63
2021/08/12 10:23:11;;;;;;;4.00;3.70;;;37.30;58.80;;;;;;5055695;28;20534;-63
2021/08/12 10:25:37;;;;;;;3.93;3.63;;;37.20;58.00;;;;;;5055765;28;20801;-62
2021/08/12 10:28:07;;;;;;;4.80;4.40;;;37.20;58.00;;;;;;5055302;28;20424;-62
2021/08/12 10:30:33;;;;;;;4.60;4.13;;;37.20;58.00;;;;;;5055288;28;20412;-63
2021/08/12 10:33:01;;;;;;;4.47;3.80;;;36.90;58.70;;;;;;5055312;28;20436;-64
2021/08/12 10:35:29;;;;;;;4.00;3.60;;;36.40;59.60;;;;;;5054078;28;20960;-62
2021/08/12 10:37:55;;;;;;;8.37;4.00;;;36.30;59.70;;;;;;5054845;28;20896;-62
2021/08/12 10:40:27;;;;;;;7.07;4.33;;;36.60;60.10;;;;;;5055350;28;20431;-62
2021/08/12 10:42:55;;;;;;;3.53;3.23;;;36.80;59.70;;;;;;5055289;28;20525;-64
2021/08/12 10:45:22;;;;;;;4.57;4.20;;;37.10;59.60;;;;;;5055231;28;20887;-62
2021/08/12 10:47:56;;;;;;;4.10;3.70;;;37.70;58.70;;;;;;5054591;28;20404;-64
2021/08/12 10:50:22;;;;;;;4.00;3.70;;;38.20;58.70;;;;;;5054900;28;20500;-62
2021/08/12 10:53:15;;;;;;;4.20;3.90;;;38.30;58.10;;;;;;5054991;28;20420;-62
2021/08/12 10:55:40;;;;;;;4.47;4.07;;;38.70;57.30;;;;;;5054172;28;20181;-64
2021/08/12 10:58:18;;;;;;;4.50;4.20;;;38.90;57.30;;;;;;5054529;28;20420;-65
2021/08/12 11:00:58;;;;;;;4.23;3.93;;;38.80;57.70;;;;;;5054880;28;20193;-64
2021/08/12 11:03:33;;;;;;;4.40;4.10;;;38.60;57.60;;;;;;5054915;28;20475;-62
2021/08/12 11:06:13;;;;;;;4.87;4.47;;;38.20;57.60;;;;;;5054828;28;20403;-63
2021/08/12 11:11:19;;;;;;;4.10;3.80;;;37.70;57.70;;;;;;5055044;28;20438;-64
2021/08/12 11:13:45;;;;;;;4.27;3.87;;;37.60;59.00;;;;;;5053443;28;20470;-62
2021/08/12 11:16:11;;;;;;;4.70;4.30;;;37.30;58.40;;;;;;5054619;28;20507;-61
2021/08/12 11:18:49;;;;;;;4.80;4.40;;;36.70;59.90;;;;;;5053963;28;20189;-61
2021/08/12 11:21:30;;;;;;;5.03;4.00;;;36.20;59.80;;;;;;5054802;28;20223;-65
2021/08/12 11:24:00;;;;;;;4.53;4.17;;;35.80;59.70;;;;;;5054392;28;20493;-62
2021/08/12 11:26:46;;;;;;;4.43;3.47;;;35.30;60.80;;;;;;5054490;28;20404;-63
2021/08/12 11:29:31;;;;;;;4.70;4.30;;;34.90;63.40;;;;;;5054089;28;20410;-62
2021/08/12 11:32:07;;;;;;;4.20;3.90;;;34.50;64.70;;;;;;5054201;28;20428;-63
2021/08/12 11:34:46;;;;;;;5.27;4.77;;;34.20;66.80;;;;;;5054392;28;20378;-64
2021/08/12 11:37:19;;;;;;;4.60;4.30;;;34.00;66.80;;;;;;5054036;28;20404;-64
2021/08/12 11:39:59;;;;;;;4.37;3.97;;;33.70;65.70;;;;;;5054423;28;20402;-65
2021/08/12 11:42:37;;;;;;;4.20;3.80;;;33.50;68.10;;;;;;5054010;28;20404;-65
2021/08/12 11:45:12;;;;;;;4.77;3.57;;;33.50;64.90;;;;;;5054126;28;20398;-62
2021/08/12 11:47:40;;;;;;;3.87;3.47;;;33.30;66.60;;;;;;5052276;28;20390;-63
2021/08/12 11:50:08;;;;;;;4.67;4.27;;;33.00;66.10;;;;;;5054402;28;20772;-63
2021/08/12 11:52:37;;;;;;;4.27;3.87;;;32.70;67.40;;;;;;5053769;28;20951;-64
2021/08/12 11:55:11;;;;;;;4.30;3.90;;;32.40;68.00;;;;;;5053663;28;20952;-61
2021/08/12 11:57:41;;;;;;;4.07;3.77;;;32.00;68.60;;;;;;5053354;28;20876;-63
2021/08/12 12:00:08;;;;;;;4.97;4.47;;;31.60;67.20;;;;;;5053678;28;20389;-62
2021/08/12 12:02:34;;;;;;;3.83;3.53;;;31.40;68.70;;;;;;5053775;28;20438;-62
2021/08/12 12:05:00;;;;;;;5.23;4.30;;;31.40;70.40;;;;;;5053616;28;20498;-62
2021/08/12 12:07:41;;;;;;;4.70;4.20;;;31.50;70.10;;;;;;5053144;28;20205;-62
2021/08/12 12:10:07;;;;;;;3.47;3.17;;;31.70;71.00;;;;;;5053623;28;20682;-62
2021/08/12 12:12:32;;;;;;;6.90;4.30;;;31.90;67.80;;;;;;5053556;28;20944;-63
2021/08/12 12:14:58;;;;;;;5.20;4.70;;;32.00;68.50;;;;;;5053513;28;20409;-63
2021/08/12 12:17:24;;;;;;;4.90;4.47;;;32.20;68.70;;;;;;5053054;28;20212;-64
2021/08/12 12:20:08;;;;;;;4.87;4.40;;;32.30;68.50;;;;;;5052696;28;20194;-63
2021/08/12 12:22:35;;;;;;;4.40;4.00;;;32.40;68.00;;;;;;5053406;28;20251;-64
2021/08/12 12:25:03;;;;;;;6.90;3.63;;;32.50;69.20;;;;;;5053502;28;20412;-62
2021/08/12 12:27:29;;;;;;;5.43;4.07;;;32.50;67.50;;;;;;5052924;28;20919;-63
2021/08/12 12:30:13;;;;;;;3.80;3.50;;;32.40;67.70;;;;;;5053131;28;20759;-62
2021/08/12 12:32:40;;;;;;;3.83;3.50;;;32.40;67.40;;;;;;5053102;28;20526;-62
2021/08/12 12:35:07;;;;;;;4.40;4.00;;;32.40;64.20;;;;;;5053275;28;20382;-62
2021/08/12 12:37:39;;;;;;;3.77;3.47;;;32.50;65.00;;;;;;5052909;28;20394;-64
2021/08/12 12:40:08;;;;;;;4.10;3.70;;;32.40;61.70;;;;;;5053653;28;20398;-63
2021/08/12 12:42:35;;;;;;;5.40;4.90;;;32.30;63.00;;;;;;5052971;28;20434;-64
2021/08/12 12:45:02;;;;;;;4.20;3.90;;;32.20;64.50;;;;;;5053256;28;20429;-63
2021/08/12 12:47:30;;;;;;;4.43;4.07;;;32.20;64.30;;;;;;5052702;28;20748;-62
2021/08/12 12:50:08;;;;;;;5.37;4.83;;;32.10;62.80;;;;;;5053002;28;20431;-62
2021/08/12 12:52:35;;;;;;;5.50;4.57;;;32.00;63.30;;;;;;5052818;28;20414;-63
2021/08/12 12:55:02;;;;;;;5.00;4.60;;;32.00;63.00;;;;;;5052942;28;20869;-64